createdAt,value
2023-02-18T00:00:59.005Z,40.70
2023-02-18T00:03:27.146Z,37.00
2023-02-18T00:05:54.728Z,42.10
2023-02-18T00:08:21.816Z,43.90
2023-02-18T00:10:48.955Z,40.00
2023-02-18T00:13:15.898Z,42.90
2023-02-18T00:15:43.000Z,38.60
2023-02-18T00:18:10.198Z,44.80
2023-02-18T00:20:39.591Z,47.50
2023-02-18T00:25:33.401Z,44.10
2023-02-18T00:28:00.425Z,33.80
2023-02-18T00:30:28.630Z,46.20
2023-02-18T00:32:56.299Z,40.90
2023-02-18T00:35:23.382Z,45.30
2023-02-18T00:37:52.812Z,45.00
2023-02-18T00:40:20.531Z,45.60
2023-02-18T00:42:48.498Z,45.50
2023-02-18T00:45:15.586Z,47.80
2023-02-18T00:47:43.183Z,46.10
2023-02-18T00:50:10.876Z,38.10
2023-02-18T00:52:37.845Z,37.80
2023-02-18T00:55:05.757Z,40.20
2023-02-18T00:57:33.412Z,42.60
2023-02-18T01:00:00.636Z,44.10
2023-02-18T01:02:27.792Z,39.40
2023-02-18T01:04:55.377Z,40.00
2023-02-18T01:07:22.520Z,35.30
2023-02-18T01:09:49.635Z,42.80
2023-02-18T01:12:17.197Z,53.80
2023-02-18T01:14:44.189Z,39.50
2023-02-18T01:17:12.308Z,39.10
2023-02-18T01:19:41.331Z,41.60
2023-02-18T01:22:08.594Z,38.80
2023-02-18T01:24:38.434Z,42.80
2023-02-18T01:27:05.563Z,43.70
2023-02-18T01:29:33.055Z,35.10
2023-02-18T01:32:01.884Z,42.70
2023-02-18T01:34:29.379Z,35.50
2023-02-18T01:36:56.394Z,27.30
2023-02-18T01:39:26.885Z,30.30
2023-02-18T01:41:54.021Z,40.70
2023-02-18T01:44:23.584Z,33.30
2023-02-18T01:46:50.709Z,33.20
2023-02-18T01:49:28.736Z,36.00
2023-02-18T01:52:17.133Z,32.60
2023-02-18T01:54:52.323Z,37.70
2023-02-18T01:57:24.969Z,43.20
2023-02-18T01:59:56.144Z,31.40
2023-02-18T02:02:26.701Z,36.00
2023-02-18T02:04:53.748Z,30.50
2023-02-18T02:07:21.760Z,37.10
2023-02-18T02:09:48.896Z,40.70
2023-02-18T02:12:30.825Z,36.50
2023-02-18T02:15:30.550Z,35.50
2023-02-18T02:18:41.631Z,34.20
2023-02-18T02:21:33.421Z,38.70
2023-02-18T02:24:37.996Z,38.40
2023-02-18T02:27:29.645Z,32.10
2023-02-18T02:30:12.521Z,36.40
2023-02-18T02:33:14.065Z,30.00
2023-02-18T02:36:00.335Z,33.10
2023-02-18T02:38:44.771Z,30.60
2023-02-18T02:41:26.936Z,33.70
2023-02-18T02:44:20.422Z,31.70
2023-02-18T02:46:51.694Z,30.90
2023-02-18T02:49:20.280Z,35.70
2023-02-18T02:51:57.151Z,24.50
2023-02-18T02:54:25.811Z,26.60
2023-02-18T02:57:12.226Z,26.40
2023-02-18T02:59:50.773Z,32.70
2023-02-18T03:02:42.520Z,26.90
2023-02-18T03:05:24.973Z,29.20
2023-02-18T03:10:57.489Z,26.10
2023-02-18T03:13:25.010Z,27.30
2023-02-18T03:15:57.693Z,28.60
2023-02-18T03:18:34.082Z,25.60
2023-02-18T03:21:19.011Z,19.10
2023-02-18T03:23:58.571Z,24.50
2023-02-18T03:26:26.918Z,25.50
2023-02-18T03:28:55.636Z,28.40
2023-02-18T03:31:25.635Z,26.00
2023-02-18T03:33:55.705Z,23.10
2023-02-18T03:36:22.721Z,26.30
2023-02-18T03:38:55.260Z,24.40
2023-02-18T03:41:22.552Z,20.30
2023-02-18T03:43:51.242Z,22.10
2023-02-18T03:46:18.984Z,19.60
2023-02-18T03:48:46.476Z,20.40
2023-02-18T03:51:14.005Z,22.60
2023-02-18T03:53:44.312Z,20.60
2023-02-18T03:56:12.372Z,19.10
2023-02-18T03:58:39.444Z,20.60
2023-02-18T04:01:06.730Z,21.80
2023-02-18T04:03:33.850Z,14.40
2023-02-18T04:06:00.883Z,15.20
2023-02-18T04:08:28.015Z,14.70
2023-02-18T04:10:55.437Z,16.00
2023-02-18T04:13:23.106Z,13.00
2023-02-18T04:15:52.662Z,15.20
2023-02-18T04:18:20.115Z,15.00
2023-02-18T04:20:47.109Z,15.20
2023-02-18T04:23:14.660Z,12.20
2023-02-18T04:25:41.497Z,11.80
2023-02-18T04:28:11.478Z,12.00
2023-02-18T04:30:39.851Z,13.10
2023-02-18T04:33:07.473Z,12.50
2023-02-18T04:35:34.699Z,14.90
2023-02-18T04:38:05.009Z,11.80
2023-02-18T04:40:33.271Z,12.50
2023-02-18T04:43:00.568Z,8.70
2023-02-18T04:45:27.806Z,10.80
2023-02-18T04:47:54.900Z,10.30
2023-02-18T04:50:21.814Z,10.60
2023-02-18T04:52:48.986Z,11.30
2023-02-18T04:55:16.032Z,13.60
2023-02-18T04:57:43.191Z,12.30
2023-02-18T05:00:11.738Z,11.20
2023-02-18T05:02:38.827Z,11.20
2023-02-18T05:05:06.705Z,8.90
2023-02-18T05:07:34.224Z,8.90
2023-02-18T05:10:01.232Z,10.60
2023-02-18T05:12:28.779Z,11.90
2023-02-18T05:14:55.664Z,10.50
2023-02-18T05:17:22.919Z,10.40
2023-02-18T05:19:49.915Z,10.40
2023-02-18T05:22:21.137Z,9.90
2023-02-18T05:24:47.999Z,7.50
2023-02-18T05:27:15.050Z,8.80
2023-02-18T05:29:42.292Z,9.70
2023-02-18T05:32:09.162Z,9.20
2023-02-18T05:34:37.287Z,7.40
2023-02-18T05:37:04.245Z,9.10
2023-02-18T05:39:31.182Z,9.90
2023-02-18T05:41:58.252Z,8.20
2023-02-18T05:44:30.625Z,7.60
2023-02-18T05:46:58.982Z,7.80
2023-02-18T05:49:25.835Z,7.50
2023-02-18T05:51:53.344Z,7.00
2023-02-18T05:54:20.342Z,7.80
2023-02-18T05:56:47.277Z,8.20
2023-02-18T05:59:14.277Z,8.20
2023-02-18T06:01:41.435Z,6.40
2023-02-18T06:04:08.851Z,5.90
2023-02-18T06:06:37.006Z,7.20
2023-02-18T06:16:35.735Z,8.40
2023-02-18T06:19:03.843Z,7.00
2023-02-18T06:21:31.061Z,9.30
2023-02-18T06:31:27.284Z,8.20
2023-02-18T06:33:54.403Z,6.90
2023-02-18T06:36:21.492Z,5.40
2023-02-18T06:38:48.689Z,7.50
2023-02-18T06:41:15.770Z,4.70
2023-02-18T06:43:42.757Z,5.70
2023-02-18T06:46:10.118Z,5.30
2023-02-18T06:48:39.045Z,4.20
2023-02-18T06:51:08.271Z,6.30
2023-02-18T06:53:35.425Z,4.90
2023-02-18T06:56:03.889Z,4.50
2023-02-18T06:58:31.483Z,3.20
2023-02-18T07:00:58.875Z,3.30
2023-02-18T08:40:15.642Z,3.10
2023-02-18T08:42:42.733Z,1.80
2023-02-18T08:45:09.555Z,3.00
2023-02-18T08:48:18.027Z,3.40
2023-02-18T08:50:26.909Z,4.60
2023-02-18T08:52:53.919Z,3.70
2023-02-18T08:55:21.527Z,2.80
2023-02-18T08:57:48.998Z,1.90
2023-02-18T09:00:20.237Z,4.70
2023-02-18T09:02:47.887Z,5.20
2023-02-18T09:05:14.842Z,3.70
2023-02-18T09:07:43.409Z,3.60
2023-02-18T09:10:10.456Z,2.40
2023-02-18T09:12:38.580Z,5.50
2023-02-18T09:15:06.184Z,3.40
2023-02-18T09:17:33.418Z,5.10
2023-02-18T09:20:01.193Z,5.10
2023-02-18T09:22:28.236Z,5.70
2023-02-18T09:24:55.195Z,4.50
2023-02-18T09:27:22.415Z,3.40
2023-02-18T09:35:54.617Z,3.60
2023-02-18T09:38:21.991Z,7.50
2023-02-18T09:40:52.455Z,4.70
2023-02-18T09:43:33.317Z,4.10
2023-02-18T09:46:01.623Z,3.20
2023-02-18T09:48:34.133Z,3.90
2023-02-18T09:51:01.585Z,2.90
2023-02-18T09:53:28.882Z,3.10
2023-02-18T09:55:58.656Z,2.70
2023-02-18T09:58:28.492Z,3.80
2023-02-18T10:01:26.243Z,4.60
2023-02-18T10:03:55.688Z,2.50
2023-02-18T10:06:25.434Z,4.10
2023-02-18T10:08:53.010Z,3.10
2023-02-18T10:11:31.537Z,3.70
2023-02-18T10:14:01.111Z,3.90
2023-02-18T10:16:28.441Z,5.30
2023-02-18T10:18:57.986Z,5.80
2023-02-18T10:21:30.678Z,4.70
2023-02-18T10:24:12.875Z,3.40
2023-02-18T10:26:40.800Z,3.10
2023-02-18T10:29:20.919Z,3.70
2023-02-18T10:32:04.748Z,4.80
2023-02-18T10:35:12.331Z,3.60
2023-02-18T10:38:02.678Z,5.70
2023-02-18T10:40:43.280Z,3.20
2023-02-18T10:43:33.572Z,4.30
2023-02-18T10:46:09.861Z,2.30
2023-02-18T10:48:53.107Z,1.90
2023-02-18T10:51:23.827Z,2.90
2023-02-18T10:53:52.227Z,4.10
2023-02-18T10:56:39.145Z,3.50
2023-02-18T10:59:23.306Z,5.60
2023-02-18T11:01:57.581Z,2.00
2023-02-18T11:04:35.812Z,2.00
2023-02-18T11:07:05.471Z,4.90
2023-02-18T11:09:41.832Z,2.70
2023-02-18T11:12:20.915Z,3.10
2023-02-18T11:22:43.936Z,3.70
2023-02-18T11:25:24.058Z,7.40
2023-02-18T11:27:52.670Z,3.20
2023-02-18T11:30:21.883Z,2.70
2023-02-18T11:33:09.785Z,8.50
2023-02-18T11:35:36.971Z,3.20
2023-02-18T11:38:04.787Z,2.40
2023-02-18T11:40:33.949Z,3.10
2023-02-18T11:45:39.358Z,3.90
2023-02-18T11:48:17.537Z,3.80
2023-02-18T11:50:45.223Z,3.80
2023-02-18T11:53:29.051Z,3.00
2023-02-18T11:56:01.184Z,2.10
2023-02-18T11:58:41.417Z,3.70
2023-02-18T12:01:27.520Z,5.20
2023-02-18T12:04:18.915Z,4.20
2023-02-18T12:06:48.569Z,5.60
2023-02-18T12:09:43.606Z,3.80
2023-02-18T12:12:20.107Z,4.40
2023-02-18T12:14:54.735Z,5.20
2023-02-18T12:17:33.826Z,4.10
2023-02-18T12:20:06.681Z,5.30
2023-02-18T12:22:48.520Z,4.00
2023-02-18T12:25:24.198Z,2.50
2023-02-18T12:28:22.499Z,3.90
2023-02-18T12:31:20.519Z,3.00
2023-02-18T12:33:52.622Z,4.00
2023-02-18T12:36:46.965Z,7.50
2023-02-18T12:39:41.933Z,5.90
2023-02-18T12:42:30.739Z,2.90
2023-02-18T12:45:18.629Z,3.40
2023-02-18T12:50:35.553Z,3.10
2023-02-18T12:53:27.012Z,5.20
2023-02-18T12:56:19.327Z,3.90
2023-02-18T12:58:49.358Z,4.10
2023-02-18T13:01:32.015Z,4.00
2023-02-18T13:04:39.094Z,5.30
2023-02-18T13:07:25.497Z,5.90
2023-02-18T13:10:08.825Z,6.10
2023-02-18T13:12:58.735Z,5.10
2023-02-18T13:15:39.216Z,4.80
2023-02-18T13:18:12.673Z,2.70
2023-02-18T13:20:51.305Z,4.00
2023-02-18T13:23:20.470Z,3.40
2023-02-18T13:25:49.831Z,2.30
2023-02-18T13:28:29.346Z,4.60
2023-02-18T13:31:15.589Z,4.90
2023-02-18T13:33:52.774Z,2.40
2023-02-18T13:36:23.630Z,6.60
2023-02-18T13:39:05.003Z,3.10
2023-02-18T13:41:40.428Z,4.00
2023-02-18T13:44:18.965Z,4.50
2023-02-18T13:46:53.411Z,2.80
2023-02-18T13:49:25.527Z,4.50
2023-02-18T13:51:55.975Z,5.00
2023-02-18T13:54:30.162Z,3.10
2023-02-18T13:57:05.629Z,2.90
2023-02-18T13:59:37.692Z,4.20
2023-02-18T14:02:21.457Z,3.80
2023-02-18T14:04:54.737Z,4.00
2023-02-18T14:07:25.564Z,3.30
2023-02-18T15:11:14.503Z,6.10
2023-02-18T15:13:45.807Z,4.60
2023-02-18T15:16:21.223Z,5.90
2023-02-18T15:18:56.737Z,4.80
2023-02-18T15:21:39.266Z,5.80
2023-02-18T15:24:08.899Z,3.20
2023-02-18T15:29:16.107Z,4.00
2023-02-18T15:31:43.724Z,6.30
2023-02-18T15:34:26.009Z,5.90
2023-02-18T15:36:54.076Z,4.60
2023-02-18T15:39:21.648Z,5.90
2023-02-18T15:41:55.076Z,3.80
2023-02-18T15:44:27.145Z,9.20
2023-02-18T15:46:54.122Z,4.00
2023-02-18T15:49:22.888Z,4.40
2023-02-18T15:51:50.566Z,4.10
2023-02-18T15:54:19.232Z,5.00
2023-02-18T15:56:47.856Z,5.50
2023-02-18T15:59:27.151Z,5.60
2023-02-18T16:02:03.280Z,5.30
2023-02-18T16:04:33.326Z,6.50
2023-02-18T16:07:03.178Z,4.80
2023-02-18T16:09:32.233Z,3.00
2023-02-18T16:12:04.828Z,4.70
2023-02-18T16:14:47.469Z,6.30
2023-02-18T16:17:17.490Z,3.10
2023-02-18T16:20:07.130Z,2.60
2023-02-18T16:22:37.080Z,4.20
2023-02-18T16:25:13.753Z,8.40
2023-02-18T16:27:51.804Z,5.00
2023-02-18T16:30:21.274Z,5.50
2023-02-18T16:32:49.115Z,5.30
2023-02-18T16:35:16.568Z,6.20
2023-02-18T16:37:45.331Z,5.90
2023-02-18T16:40:21.951Z,3.20
2023-02-18T16:42:49.285Z,3.80
2023-02-18T16:45:16.643Z,4.10
2023-02-18T16:47:45.937Z,2.70
2023-02-18T16:52:48.220Z,7.80
2023-02-18T16:55:22.878Z,6.80
2023-02-18T16:57:50.021Z,6.80
2023-02-18T17:00:17.985Z,4.20
2023-02-18T17:02:46.594Z,5.20
2023-02-18T17:05:26.904Z,7.30
2023-02-18T17:07:59.836Z,3.90
2023-02-18T17:10:27.307Z,8.10
2023-02-18T17:12:54.988Z,3.60
2023-02-18T17:15:27.236Z,3.90
2023-02-18T17:17:54.562Z,3.80
2023-02-18T17:20:29.260Z,5.50
2023-02-18T17:22:56.709Z,5.20
2023-02-18T17:25:35.297Z,6.10
2023-02-18T17:28:03.089Z,5.70
2023-02-18T17:30:30.918Z,4.80
2023-02-18T17:33:02.881Z,6.00
2023-02-18T17:35:30.472Z,6.50
2023-02-18T17:37:57.347Z,4.50
2023-02-18T17:40:26.157Z,4.70
2023-02-18T17:42:54.037Z,4.30
2023-02-18T17:45:29.107Z,5.30
2023-02-18T17:47:58.482Z,5.50
2023-02-18T17:50:26.032Z,4.70
2023-02-18T17:52:55.777Z,6.40
2023-02-18T17:55:24.144Z,6.80
2023-02-18T17:57:51.615Z,3.90
2023-02-18T18:00:25.018Z,6.40
2023-02-18T18:02:52.620Z,5.40
2023-02-18T18:05:22.600Z,5.20
2023-02-18T18:07:50.586Z,6.80
2023-02-18T18:12:46.415Z,5.30
2023-02-18T18:15:34.535Z,5.80
2023-02-18T18:18:01.770Z,8.70
2023-02-18T18:20:29.944Z,5.10
2023-02-18T18:22:58.216Z,5.50
2023-02-18T18:25:27.747Z,3.70
2023-02-18T18:27:54.803Z,4.20
2023-02-18T18:30:26.912Z,4.90
2023-02-18T18:32:53.971Z,6.50
2023-02-18T18:35:21.984Z,4.10
2023-02-18T18:37:50.709Z,6.70
2023-02-18T18:40:18.799Z,8.60
2023-02-18T18:42:45.638Z,3.60
2023-02-18T18:45:18.187Z,7.90
2023-02-18T18:47:46.291Z,3.40
2023-02-18T18:50:13.655Z,8.60
2023-02-18T18:52:43.734Z,5.60
2023-02-18T18:55:23.642Z,5.30
2023-02-18T18:57:50.970Z,6.30
2023-02-18T19:00:19.365Z,5.80
2023-02-18T19:02:46.805Z,7.10
2023-02-18T19:05:27.780Z,4.80
2023-02-18T19:07:56.357Z,6.40
2023-02-18T19:10:32.966Z,6.10
2023-02-18T19:13:03.453Z,4.40
2023-02-18T19:15:30.439Z,6.70
2023-02-18T19:17:58.830Z,6.50
2023-02-18T19:20:28.031Z,3.60
2023-02-18T19:22:54.796Z,5.20
2023-02-18T19:38:13.099Z,6.00
2023-02-18T19:40:40.154Z,5.40
2023-02-18T19:43:07.367Z,4.90
2023-02-18T19:45:38.264Z,7.10
2023-02-18T19:48:05.126Z,9.20
2023-02-18T19:50:32.253Z,5.10
2023-02-18T19:53:00.179Z,6.10
2023-02-18T19:55:27.385Z,5.20
2023-02-18T19:57:54.464Z,6.10
2023-02-18T20:00:22.594Z,7.60
2023-02-18T20:02:50.592Z,6.00
2023-02-18T20:05:17.956Z,6.10
2023-02-18T20:07:48.667Z,7.70
2023-02-18T20:10:17.965Z,6.30
2023-02-18T20:12:45.241Z,8.00
2023-02-18T20:15:12.568Z,7.10
2023-02-18T20:17:39.743Z,6.60
2023-02-18T20:20:06.762Z,6.20
2023-02-18T20:22:34.222Z,5.10
2023-02-18T20:25:01.798Z,4.50
2023-02-18T20:27:28.952Z,4.40
2023-02-18T20:29:56.305Z,5.70
2023-02-18T20:32:23.430Z,6.10
2023-02-18T20:34:50.250Z,9.40
2023-02-18T20:37:18.239Z,8.20
2023-02-18T20:39:45.069Z,6.90
2023-02-18T20:42:16.657Z,8.70
2023-02-18T20:44:51.842Z,6.20
2023-02-18T20:47:19.159Z,10.70
2023-02-18T20:49:46.958Z,4.10
2023-02-18T20:52:14.881Z,5.80
2023-02-18T20:54:41.926Z,5.60
2023-02-18T20:57:09.148Z,7.00
2023-02-18T20:59:36.292Z,4.50
2023-02-18T21:02:03.453Z,6.50
2023-02-18T21:04:30.761Z,4.30
2023-02-18T21:06:57.978Z,7.90
2023-02-18T21:09:26.867Z,6.50
2023-02-18T21:11:55.670Z,5.70
2023-02-18T21:14:22.930Z,5.10
2023-02-18T21:16:49.832Z,5.10
2023-02-18T21:19:18.024Z,4.30
2023-02-18T21:21:45.316Z,6.20
2023-02-18T21:24:12.451Z,7.40
2023-02-18T21:26:39.966Z,7.80
2023-02-18T21:29:08.453Z,6.00
2023-02-18T21:31:39.535Z,4.60
2023-02-18T21:34:07.743Z,6.00
2023-02-18T21:36:35.836Z,7.50
2023-02-18T21:39:05.306Z,5.70
2023-02-18T21:41:34.903Z,5.70
2023-02-18T21:44:02.167Z,8.90
2023-02-18T21:46:31.094Z,3.70
2023-02-18T21:49:09.597Z,5.80
2023-02-18T21:51:58.023Z,6.20
2023-02-18T21:54:26.364Z,7.60
2023-02-18T21:56:53.782Z,6.50
2023-02-18T21:59:21.418Z,6.40
2023-02-18T22:01:48.956Z,6.70
2023-02-18T22:04:16.414Z,8.30
2023-02-18T22:06:47.068Z,7.10
2023-02-18T22:09:14.456Z,5.40
2023-02-18T22:11:44.686Z,6.40
2023-02-18T22:14:11.911Z,8.80
2023-02-18T22:16:40.460Z,6.40
2023-02-18T22:19:07.647Z,8.70
2023-02-18T22:21:35.740Z,11.40
2023-02-18T22:24:05.030Z,4.70
2023-02-18T22:26:33.256Z,6.60
2023-02-18T22:29:00.412Z,4.80
2023-02-18T22:31:28.582Z,4.80
2023-02-18T22:33:56.554Z,5.80
2023-02-18T22:36:24.969Z,8.10
2023-02-18T22:38:52.320Z,6.20
2023-02-18T22:41:20.439Z,4.00
2023-02-18T22:43:47.359Z,4.80
2023-02-18T22:46:18.679Z,5.90
2023-02-18T22:48:46.229Z,6.50
2023-02-18T22:51:15.141Z,4.40
2023-02-18T22:53:42.337Z,6.50
2023-02-18T22:56:14.867Z,6.20
2023-02-18T22:58:42.696Z,5.60
2023-02-18T23:01:19.695Z,3.90
2023-02-18T23:03:46.849Z,6.50
2023-02-18T23:06:14.430Z,5.10
2023-02-18T23:08:41.457Z,7.70
2023-02-18T23:11:13.456Z,4.60
2023-02-18T23:13:40.283Z,7.70
2023-02-18T23:16:11.366Z,4.40
2023-02-18T23:18:38.387Z,5.20
2023-02-18T23:21:18.206Z,6.40
2023-02-18T23:23:45.885Z,5.50
2023-02-18T23:26:12.665Z,6.70
2023-02-18T23:28:48.930Z,6.30
2023-02-18T23:31:21.332Z,3.90
2023-02-18T23:33:50.171Z,8.10
2023-02-18T23:36:18.897Z,5.50
2023-02-18T23:41:17.666Z,7.70
2023-02-18T23:43:45.651Z,9.40
2023-02-18T23:46:13.123Z,8.40
2023-02-18T23:48:40.755Z,6.20
2023-02-18T23:51:09.597Z,5.70
2023-02-18T23:53:37.644Z,5.10
2023-02-18T23:56:12.061Z,9.30
2023-02-18T23:58:42.408Z,5.50
